sensor_id;sensor_type;location;lat;lon;timestamp;P1;durP1;ratioP1;P2;durP2;ratioP2
56267;SDS011;42175;46.930;9.532;2023-02-01T00:00:19;4.32;;;2.90;;
56267;SDS011;42175;46.930;9.532;2023-02-01T00:02:45;4.88;;;3.20;;
56267;SDS011;42175;46.930;9.532;2023-02-01T00:05:11;5.05;;;3.05;;
56267;SDS011;42175;46.930;9.532;2023-02-01T00:07:36;5.25;;;2.92;;
56267;SDS011;42175;46.930;9.532;2023-02-01T00:10:06;4.20;;;2.97;;
56267;SDS011;42175;46.930;9.532;2023-02-01T00:12:33;6.60;;;3.03;;
56267;SDS011;42175;46.930;9.532;2023-02-01T00:14:58;5.20;;;2.97;;
56267;SDS011;42175;46.930;9.532;2023-02-01T00:17:24;7.95;;;3.20;;
56267;SDS011;42175;46.930;9.532;2023-02-01T00:19:50;3.90;;;2.33;;
56267;SDS011;42175;46.930;9.532;2023-02-01T00:22:16;5.82;;;3.00;;
56267;SDS011;42175;46.930;9.532;2023-02-01T00:24:41;5.95;;;2.75;;
56267;SDS011;42175;46.930;9.532;2023-02-01T00:27:07;5.82;;;3.13;;
56267;SDS011;42175;46.930;9.532;2023-02-01T00:29:33;4.65;;;2.65;;
56267;SDS011;42175;46.930;9.532;2023-02-01T00:31:58;5.82;;;2.92;;
56267;SDS011;42175;46.930;9.532;2023-02-01T00:34:24;3.90;;;2.50;;
56267;SDS011;42175;46.930;9.532;2023-02-01T00:36:50;6.32;;;2.50;;
56267;SDS011;42175;46.930;9.532;2023-02-01T00:39:16;4.22;;;2.90;;
56267;SDS011;42175;46.930;9.532;2023-02-01T00:41:42;6.45;;;2.90;;
56267;SDS011;42175;46.930;9.532;2023-02-01T00:44:08;3.28;;;2.55;;
56267;SDS011;42175;46.930;9.532;2023-02-01T00:46:34;3.72;;;2.38;;
56267;SDS011;42175;46.930;9.532;2023-02-01T00:49:00;5.03;;;2.55;;
56267;SDS011;42175;46.930;9.532;2023-02-01T00:51:26;6.30;;;2.65;;
56267;SDS011;42175;46.930;9.532;2023-02-01T00:53:53;5.15;;;2.88;;
56267;SDS011;42175;46.930;9.532;2023-02-01T00:56:20;4.32;;;2.40;;
56267;SDS011;42175;46.930;9.532;2023-02-01T00:58:45;4.75;;;2.70;;
56267;SDS011;42175;46.930;9.532;2023-02-01T01:03:42;3.60;;;2.25;;
56267;SDS011;42175;46.930;9.532;2023-02-01T01:06:11;4.60;;;2.63;;
56267;SDS011;42175;46.930;9.532;2023-02-01T01:08:39;3.40;;;2.28;;
56267;SDS011;42175;46.930;9.532;2023-02-01T01:11:12;4.72;;;2.55;;
56267;SDS011;42175;46.930;9.532;2023-02-01T01:13:49;6.97;;;3.05;;
56267;SDS011;42175;46.930;9.532;2023-02-01T01:16:16;5.30;;;2.60;;
56267;SDS011;42175;46.930;9.532;2023-02-01T01:18:42;3.67;;;2.55;;
56267;SDS011;42175;46.930;9.532;2023-02-01T01:21:10;3.60;;;2.30;;
56267;SDS011;42175;46.930;9.532;2023-02-01T01:23:38;6.22;;;2.58;;
56267;SDS011;42175;46.930;9.532;2023-02-01T01:26:04;3.70;;;2.20;;
56267;SDS011;42175;46.930;9.532;2023-02-01T01:28:35;4.25;;;2.40;;
56267;SDS011;42175;46.930;9.532;2023-02-01T01:31:02;5.88;;;2.53;;
56267;SDS011;42175;46.930;9.532;2023-02-01T01:33:28;3.83;;;2.25;;
56267;SDS011;42175;46.930;9.532;2023-02-01T01:35:54;2.50;;;1.85;;
56267;SDS011;42175;46.930;9.532;2023-02-01T01:38:19;3.92;;;2.03;;
56267;SDS011;42175;46.930;9.532;2023-02-01T01:40:45;3.38;;;2.25;;
56267;SDS011;42175;46.930;9.532;2023-02-01T01:43:16;3.40;;;2.20;;
56267;SDS011;42175;46.930;9.532;2023-02-01T01:48:14;2.83;;;1.95;;
56267;SDS011;42175;46.930;9.532;2023-02-01T01:50:47;3.03;;;2.20;;
56267;SDS011;42175;46.930;9.532;2023-02-01T01:53:22;3.65;;;2.20;;
56267;SDS011;42175;46.930;9.532;2023-02-01T01:55:55;4.63;;;2.40;;
56267;SDS011;42175;46.930;9.532;2023-02-01T01:58:22;3.88;;;2.40;;
56267;SDS011;42175;46.930;9.532;2023-02-01T02:00:53;4.55;;;2.22;;
56267;SDS011;42175;46.930;9.532;2023-02-01T02:03:33;2.55;;;1.85;;
56267;SDS011;42175;46.930;9.532;2023-02-01T02:06:03;7.05;;;2.25;;
56267;SDS011;42175;46.930;9.532;2023-02-01T02:08:32;2.08;;;1.55;;
56267;SDS011;42175;46.930;9.532;2023-02-01T02:10:58;3.80;;;1.77;;
56267;SDS011;42175;46.930;9.532;2023-02-01T02:13:24;3.33;;;1.83;;
56267;SDS011;42175;46.930;9.532;2023-02-01T02:16:03;3.03;;;1.70;;
56267;SDS011;42175;46.930;9.532;2023-02-01T02:19:03;3.97;;;2.10;;
56267;SDS011;42175;46.930;9.532;2023-02-01T02:27:06;4.28;;;2.33;;
56267;SDS011;42175;46.930;9.532;2023-02-01T02:34:52;2.47;;;1.77;;
56267;SDS011;42175;46.930;9.532;2023-02-01T02:37:26;2.55;;;1.90;;
56267;SDS011;42175;46.930;9.532;2023-02-01T02:40:34;2.47;;;1.65;;
56267;SDS011;42175;46.930;9.532;2023-02-01T02:43:15;3.20;;;1.90;;
56267;SDS011;42175;46.930;9.532;2023-02-01T02:46:11;2.33;;;1.67;;
56267;SDS011;42175;46.930;9.532;2023-02-01T02:52:13;2.65;;;1.63;;
56267;SDS011;42175;46.930;9.532;2023-02-01T02:55:00;2.97;;;1.65;;
56267;SDS011;42175;46.930;9.532;2023-02-01T02:57:34;2.58;;;1.60;;
56267;SDS011;42175;46.930;9.532;2023-02-01T03:00:24;4.03;;;1.67;;
56267;SDS011;42175;46.930;9.532;2023-02-01T03:03:12;3.67;;;2.03;;
56267;SDS011;42175;46.930;9.532;2023-02-01T03:05:56;3.25;;;1.73;;
56267;SDS011;42175;46.930;9.532;2023-02-01T03:08:23;3.03;;;1.90;;
56267;SDS011;42175;46.930;9.532;2023-02-01T03:11:01;2.50;;;1.60;;
56267;SDS011;42175;46.930;9.532;2023-02-01T03:13:45;3.22;;;1.90;;
56267;SDS011;42175;46.930;9.532;2023-02-01T03:21:44;32.65;;;3.70;;
56267;SDS011;42175;46.930;9.532;2023-02-01T03:26:48;2.30;;;1.50;;
56267;SDS011;42175;46.930;9.532;2023-02-01T03:29:21;2.45;;;1.60;;
56267;SDS011;42175;46.930;9.532;2023-02-01T03:31:52;3.72;;;1.67;;
56267;SDS011;42175;46.930;9.532;2023-02-01T03:34:18;1.98;;;1.50;;
56267;SDS011;42175;46.930;9.532;2023-02-01T03:42:13;2.78;;;1.52;;
56267;SDS011;42175;46.930;9.532;2023-02-01T03:44:46;1.88;;;1.40;;
56267;SDS011;42175;46.930;9.532;2023-02-01T03:47:26;2.67;;;1.30;;
56267;SDS011;42175;46.930;9.532;2023-02-01T03:49:56;6.68;;;1.67;;
56267;SDS011;42175;46.930;9.532;2023-02-01T03:52:28;2.13;;;1.52;;
56267;SDS011;42175;46.930;9.532;2023-02-01T03:55:01;2.63;;;1.50;;
56267;SDS011;42175;46.930;9.532;2023-02-01T03:57:29;3.00;;;1.67;;
56267;SDS011;42175;46.930;9.532;2023-02-01T04:00:33;3.60;;;1.42;;
56267;SDS011;42175;46.930;9.532;2023-02-01T04:02:52;2.30;;;1.60;;
56267;SDS011;42175;46.930;9.532;2023-02-01T04:05:19;1.88;;;1.48;;
56267;SDS011;42175;46.930;9.532;2023-02-01T04:07:45;4.43;;;1.30;;
56267;SDS011;42175;46.930;9.532;2023-02-01T04:10:11;2.92;;;1.30;;
56267;SDS011;42175;46.930;9.532;2023-02-01T04:12:37;2.10;;;1.55;;
56267;SDS011;42175;46.930;9.532;2023-02-01T04:15:03;2.17;;;1.67;;
56267;SDS011;42175;46.930;9.532;2023-02-01T04:17:29;3.45;;;1.58;;
56267;SDS011;42175;46.930;9.532;2023-02-01T04:19:55;2.72;;;1.40;;
56267;SDS011;42175;46.930;9.532;2023-02-01T04:22:21;2.75;;;1.42;;
56267;SDS011;42175;46.930;9.532;2023-02-01T04:24:47;2.97;;;1.38;;
56267;SDS011;42175;46.930;9.532;2023-02-01T04:27:13;2.35;;;1.60;;
56267;SDS011;42175;46.930;9.532;2023-02-01T04:29:39;2.03;;;1.48;;
56267;SDS011;42175;46.930;9.532;2023-02-01T04:32:05;2.15;;;1.75;;
56267;SDS011;42175;46.930;9.532;2023-02-01T04:34:31;2.08;;;1.48;;
56267;SDS011;42175;46.930;9.532;2023-02-01T04:36:56;2.17;;;1.30;;
56267;SDS011;42175;46.930;9.532;2023-02-01T04:39:22;1.98;;;1.05;;
56267;SDS011;42175;46.930;9.532;2023-02-01T04:41:48;2.80;;;1.30;;
56267;SDS011;42175;46.930;9.532;2023-02-01T04:44:15;2.85;;;1.60;;
56267;SDS011;42175;46.930;9.532;2023-02-01T04:46:42;2.75;;;1.20;;
56267;SDS011;42175;46.930;9.532;2023-02-01T04:49:09;2.55;;;1.15;;
56267;SDS011;42175;46.930;9.532;2023-02-01T04:51:35;1.80;;;1.20;;
56267;SDS011;42175;46.930;9.532;2023-02-01T04:54:02;2.03;;;1.48;;
56267;SDS011;42175;46.930;9.532;2023-02-01T04:56:28;3.78;;;1.20;;
56267;SDS011;42175;46.930;9.532;2023-02-01T04:58:54;2.22;;;1.55;;
56267;SDS011;42175;46.930;9.532;2023-02-01T05:01:20;1.83;;;1.20;;
56267;SDS011;42175;46.930;9.532;2023-02-01T05:03:48;2.70;;;1.30;;
56267;SDS011;42175;46.930;9.532;2023-02-01T05:06:14;2.10;;;1.35;;
56267;SDS011;42175;46.930;9.532;2023-02-01T05:08:39;3.03;;;1.42;;
56267;SDS011;42175;46.930;9.532;2023-02-01T05:11:05;1.50;;;1.30;;
56267;SDS011;42175;46.930;9.532;2023-02-01T05:13:31;2.15;;;1.50;;
56267;SDS011;42175;46.930;9.532;2023-02-01T05:16:15;3.47;;;1.08;;
56267;SDS011;42175;46.930;9.532;2023-02-01T05:18:41;2.30;;;1.33;;
56267;SDS011;42175;46.930;9.532;2023-02-01T05:21:07;3.75;;;1.33;;
56267;SDS011;42175;46.930;9.532;2023-02-01T05:23:33;2.10;;;1.20;;
56267;SDS011;42175;46.930;9.532;2023-02-01T05:26:18;2.28;;;1.30;;
56267;SDS011;42175;46.930;9.532;2023-02-01T05:28:44;2.38;;;1.38;;
56267;SDS011;42175;46.930;9.532;2023-02-01T05:31:10;2.03;;;1.38;;
56267;SDS011;42175;46.930;9.532;2023-02-01T05:33:36;2.88;;;1.63;;
56267;SDS011;42175;46.930;9.532;2023-02-01T05:36:02;8.05;;;1.67;;
56267;SDS011;42175;46.930;9.532;2023-02-01T05:38:28;2.05;;;1.60;;
56267;SDS011;42175;46.930;9.532;2023-02-01T05:40:57;3.45;;;1.52;;
56267;SDS011;42175;46.930;9.532;2023-02-01T05:43:23;3.33;;;1.83;;
56267;SDS011;42175;46.930;9.532;2023-02-01T05:45:49;3.10;;;1.52;;
56267;SDS011;42175;46.930;9.532;2023-02-01T05:48:16;6.57;;;1.50;;
56267;SDS011;42175;46.930;9.532;2023-02-01T05:50:42;2.83;;;1.40;;
56267;SDS011;42175;46.930;9.532;2023-02-01T05:53:08;2.45;;;2.05;;
56267;SDS011;42175;46.930;9.532;2023-02-01T05:55:34;4.63;;;1.50;;
56267;SDS011;42175;46.930;9.532;2023-02-01T05:58:01;1.83;;;1.40;;
56267;SDS011;42175;46.930;9.532;2023-02-01T06:00:27;7.65;;;1.83;;
56267;SDS011;42175;46.930;9.532;2023-02-01T06:02:52;10.15;;;1.83;;
56267;SDS011;42175;46.930;9.532;2023-02-01T06:05:18;29.27;;;2.03;;
56267;SDS011;42175;46.930;9.532;2023-02-01T06:07:44;13.15;;;1.88;;
56267;SDS011;42175;46.930;9.532;2023-02-01T06:10:10;9.13;;;1.50;;
56267;SDS011;42175;46.930;9.532;2023-02-01T06:12:36;7.75;;;2.00;;
56267;SDS011;42175;46.930;9.532;2023-02-01T06:15:02;4.13;;;1.67;;
56267;SDS011;42175;46.930;9.532;2023-02-01T06:17:28;6.32;;;1.70;;
56267;SDS011;42175;46.930;9.532;2023-02-01T06:19:54;4.88;;;1.60;;
56267;SDS011;42175;46.930;9.532;2023-02-01T06:22:19;3.70;;;1.65;;
56267;SDS011;42175;46.930;9.532;2023-02-01T06:24:47;8.77;;;2.10;;
56267;SDS011;42175;46.930;9.532;2023-02-01T06:27:14;5.68;;;1.52;;
56267;SDS011;42175;46.930;9.532;2023-02-01T06:29:40;5.40;;;1.58;;
56267;SDS011;42175;46.930;9.532;2023-02-01T06:32:06;9.18;;;2.28;;
56267;SDS011;42175;46.930;9.532;2023-02-01T06:34:32;4.82;;;1.30;;
56267;SDS011;42175;46.930;9.532;2023-02-01T06:36:57;5.38;;;1.45;;
56267;SDS011;42175;46.930;9.532;2023-02-01T06:39:23;2.95;;;1.67;;
56267;SDS011;42175;46.930;9.532;2023-02-01T06:41:49;4.95;;;1.65;;
56267;SDS011;42175;46.930;9.532;2023-02-01T06:44:15;6.28;;;2.15;;
56267;SDS011;42175;46.930;9.532;2023-02-01T06:46:41;4.80;;;1.65;;
56267;SDS011;42175;46.930;9.532;2023-02-01T06:49:08;5.25;;;1.88;;
56267;SDS011;42175;46.930;9.532;2023-02-01T06:51:34;5.07;;;2.70;;
56267;SDS011;42175;46.930;9.532;2023-02-01T06:54:00;9.63;;;2.22;;
56267;SDS011;42175;46.930;9.532;2023-02-01T06:56:27;3.35;;;1.90;;
56267;SDS011;42175;46.930;9.532;2023-02-01T06:58:53;5.93;;;2.03;;
56267;SDS011;42175;46.930;9.532;2023-02-01T07:01:18;12.50;;;2.85;;
56267;SDS011;42175;46.930;9.532;2023-02-01T07:03:48;12.35;;;2.05;;
56267;SDS011;42175;46.930;9.532;2023-02-01T07:06:16;11.60;;;1.90;;
56267;SDS011;42175;46.930;9.532;2023-02-01T07:08:42;7.03;;;2.10;;
56267;SDS011;42175;46.930;9.532;2023-02-01T07:11:09;15.07;;;3.65;;
56267;SDS011;42175;46.930;9.532;2023-02-01T07:13:38;5.45;;;1.98;;
56267;SDS011;42175;46.930;9.532;2023-02-01T07:16:05;6.55;;;1.80;;
56267;SDS011;42175;46.930;9.532;2023-02-01T07:18:34;5.60;;;1.90;;
56267;SDS011;42175;46.930;9.532;2023-02-01T07:21:00;18.17;;;2.90;;
56267;SDS011;42175;46.930;9.532;2023-02-01T07:23:26;23.00;;;3.28;;
56267;SDS011;42175;46.930;9.532;2023-02-01T07:25:53;11.30;;;2.88;;
56267;SDS011;42175;46.930;9.532;2023-02-01T07:28:23;11.75;;;2.97;;
56267;SDS011;42175;46.930;9.532;2023-02-01T07:30:49;14.95;;;3.00;;
56267;SDS011;42175;46.930;9.532;2023-02-01T07:33:17;25.73;;;3.60;;
56267;SDS011;42175;46.930;9.532;2023-02-01T07:35:44;14.55;;;3.13;;
56267;SDS011;42175;46.930;9.532;2023-02-01T07:38:10;6.32;;;2.50;;
56267;SDS011;42175;46.930;9.532;2023-02-01T07:40:36;8.25;;;2.90;;
56267;SDS011;42175;46.930;9.532;2023-02-01T07:43:01;9.52;;;3.72;;
56267;SDS011;42175;46.930;9.532;2023-02-01T07:45:27;11.65;;;3.35;;
56267;SDS011;42175;46.930;9.532;2023-02-01T07:47:53;6.78;;;2.90;;
56267;SDS011;42175;46.930;9.532;2023-02-01T07:50:19;14.13;;;3.67;;
56267;SDS011;42175;46.930;9.532;2023-02-01T07:52:45;10.55;;;3.15;;
56267;SDS011;42175;46.930;9.532;2023-02-01T07:55:10;10.73;;;2.90;;
56267;SDS011;42175;46.930;9.532;2023-02-01T07:57:36;9.18;;;3.38;;
56267;SDS011;42175;46.930;9.532;2023-02-01T08:00:02;8.30;;;3.05;;
56267;SDS011;42175;46.930;9.532;2023-02-01T08:02:47;9.23;;;3.20;;
56267;SDS011;42175;46.930;9.532;2023-02-01T08:05:12;9.85;;;3.40;;
56267;SDS011;42175;46.930;9.532;2023-02-01T08:07:38;8.93;;;3.45;;
56267;SDS011;42175;46.930;9.532;2023-02-01T08:10:04;7.70;;;3.20;;
56267;SDS011;42175;46.930;9.532;2023-02-01T08:12:35;6.70;;;2.97;;
56267;SDS011;42175;46.930;9.532;2023-02-01T08:15:02;7.63;;;2.75;;
56267;SDS011;42175;46.930;9.532;2023-02-01T08:17:29;12.45;;;3.92;;
56267;SDS011;42175;46.930;9.532;2023-02-01T08:19:55;11.43;;;3.63;;
56267;SDS011;42175;46.930;9.532;2023-02-01T08:22:21;7.50;;;3.60;;
56267;SDS011;42175;46.930;9.532;2023-02-01T08:24:50;7.20;;;3.45;;
56267;SDS011;42175;46.930;9.532;2023-02-01T08:27:16;7.57;;;3.55;;
56267;SDS011;42175;46.930;9.532;2023-02-01T08:29:43;11.15;;;3.75;;
56267;SDS011;42175;46.930;9.532;2023-02-01T08:32:08;9.20;;;3.38;;
56267;SDS011;42175;46.930;9.532;2023-02-01T08:34:34;8.38;;;3.08;;
56267;SDS011;42175;46.930;9.532;2023-02-01T08:37:00;6.90;;;3.05;;
56267;SDS011;42175;46.930;9.532;2023-02-01T08:39:26;9.85;;;3.35;;
56267;SDS011;42175;46.930;9.532;2023-02-01T08:41:51;8.15;;;3.38;;
56267;SDS011;42175;46.930;9.532;2023-02-01T08:44:35;13.23;;;3.40;;
56267;SDS011;42175;46.930;9.532;2023-02-01T08:47:02;9.48;;;3.33;;
56267;SDS011;42175;46.930;9.532;2023-02-01T08:49:28;5.82;;;2.95;;
56267;SDS011;42175;46.930;9.532;2023-02-01T08:51:54;10.65;;;3.38;;
56267;SDS011;42175;46.930;9.532;2023-02-01T08:54:21;7.95;;;3.05;;
56267;SDS011;42175;46.930;9.532;2023-02-01T08:56:47;8.73;;;3.33;;
56267;SDS011;42175;46.930;9.532;2023-02-01T08:59:12;10.20;;;3.15;;
56267;SDS011;42175;46.930;9.532;2023-02-01T09:01:38;10.40;;;3.08;;
56267;SDS011;42175;46.930;9.532;2023-02-01T09:04:04;5.80;;;3.10;;
56267;SDS011;42175;46.930;9.532;2023-02-01T09:06:29;7.53;;;3.35;;
56267;SDS011;42175;46.930;9.532;2023-02-01T09:08:55;8.43;;;3.35;;
56267;SDS011;42175;46.930;9.532;2023-02-01T09:11:21;5.65;;;2.97;;
56267;SDS011;42175;46.930;9.532;2023-02-01T09:13:47;7.90;;;3.00;;
56267;SDS011;42175;46.930;9.532;2023-02-01T09:16:13;6.07;;;2.90;;
56267;SDS011;42175;46.930;9.532;2023-02-01T09:18:40;7.88;;;3.17;;
56267;SDS011;42175;46.930;9.532;2023-02-01T09:21:06;5.63;;;3.00;;
56267;SDS011;42175;46.930;9.532;2023-02-01T09:23:32;6.38;;;3.08;;
56267;SDS011;42175;46.930;9.532;2023-02-01T09:25:59;5.72;;;2.70;;
56267;SDS011;42175;46.930;9.532;2023-02-01T09:28:28;8.52;;;2.75;;
56267;SDS011;42175;46.930;9.532;2023-02-01T09:30:55;7.15;;;3.15;;
56267;SDS011;42175;46.930;9.532;2023-02-01T09:33:25;4.80;;;2.85;;
56267;SDS011;42175;46.930;9.532;2023-02-01T09:35:59;5.32;;;2.53;;
56267;SDS011;42175;46.930;9.532;2023-02-01T09:38:26;5.13;;;2.58;;
56267;SDS011;42175;46.930;9.532;2023-02-01T09:40:52;6.50;;;3.17;;
56267;SDS011;42175;46.930;9.532;2023-02-01T09:43:25;5.28;;;2.53;;
56267;SDS011;42175;46.930;9.532;2023-02-01T09:48:45;8.70;;;2.88;;
56267;SDS011;42175;46.930;9.532;2023-02-01T09:51:13;7.80;;;2.92;;
56267;SDS011;42175;46.930;9.532;2023-02-01T09:54:34;6.03;;;3.10;;
56267;SDS011;42175;46.930;9.532;2023-02-01T09:56:54;9.88;;;2.70;;
56267;SDS011;42175;46.930;9.532;2023-02-01T10:01:57;44.30;;;3.50;;
56267;SDS011;42175;46.930;9.532;2023-02-01T10:04:24;12.73;;;2.80;;
56267;SDS011;42175;46.930;9.532;2023-02-01T10:07:15;14.50;;;2.92;;
56267;SDS011;42175;46.930;9.532;2023-02-01T10:15:30;7.10;;;2.55;;
56267;SDS011;42175;46.930;9.532;2023-02-01T10:26:40;9.23;;;3.00;;
56267;SDS011;42175;46.930;9.532;2023-02-01T10:29:19;9.90;;;2.75;;
56267;SDS011;42175;46.930;9.532;2023-02-01T10:31:47;8.35;;;3.10;;
56267;SDS011;42175;46.930;9.532;2023-02-01T10:36:55;8.80;;;2.67;;
56267;SDS011;42175;46.930;9.532;2023-02-01T10:39:25;7.78;;;2.90;;
56267;SDS011;42175;46.930;9.532;2023-02-01T10:41:50;5.15;;;2.60;;
56267;SDS011;42175;46.930;9.532;2023-02-01T10:44:26;6.80;;;2.90;;
56267;SDS011;42175;46.930;9.532;2023-02-01T10:46:55;7.13;;;2.80;;
56267;SDS011;42175;46.930;9.532;2023-02-01T10:49:29;8.27;;;2.97;;
56267;SDS011;42175;46.930;9.532;2023-02-01T10:52:07;6.85;;;2.58;;
56267;SDS011;42175;46.930;9.532;2023-02-01T10:54:41;6.75;;;2.92;;
56267;SDS011;42175;46.930;9.532;2023-02-01T10:57:08;7.25;;;2.70;;
56267;SDS011;42175;46.930;9.532;2023-02-01T10:59:35;6.63;;;2.42;;
56267;SDS011;42175;46.930;9.532;2023-02-01T11:02:05;10.73;;;2.67;;
56267;SDS011;42175;46.930;9.532;2023-02-01T11:05:00;9.98;;;2.55;;
56267;SDS011;42175;46.930;9.532;2023-02-01T11:07:35;5.50;;;2.42;;
56267;SDS011;42175;46.930;9.532;2023-02-01T11:10:02;5.43;;;2.83;;
56267;SDS011;42175;46.930;9.532;2023-02-01T11:17:29;5.22;;;2.47;;
56267;SDS011;42175;46.930;9.532;2023-02-01T11:22:54;4.15;;;2.28;;
56267;SDS011;42175;46.930;9.532;2023-02-01T11:25:21;5.93;;;2.53;;
56267;SDS011;42175;46.930;9.532;2023-02-01T11:27:48;7.82;;;2.80;;
56267;SDS011;42175;46.930;9.532;2023-02-01T11:30:17;5.93;;;2.67;;
56267;SDS011;42175;46.930;9.532;2023-02-01T11:32:49;4.75;;;2.30;;
56267;SDS011;42175;46.930;9.532;2023-02-01T11:35:18;6.53;;;2.35;;
56267;SDS011;42175;46.930;9.532;2023-02-01T11:37:48;5.53;;;2.35;;
56267;SDS011;42175;46.930;9.532;2023-02-01T11:42:56;6.93;;;2.42;;
56267;SDS011;42175;46.930;9.532;2023-02-01T11:47:56;5.20;;;2.33;;
56267;SDS011;42175;46.930;9.532;2023-02-01T11:53:30;6.97;;;2.80;;
56267;SDS011;42175;46.930;9.532;2023-02-01T12:12:29;8.00;;;2.50;;
56267;SDS011;42175;46.930;9.532;2023-02-01T12:29:12;7.28;;;2.58;;
56267;SDS011;42175;46.930;9.532;2023-02-01T12:40:22;5.00;;;2.92;;
56267;SDS011;42175;46.930;9.532;2023-02-01T12:43:12;12.35;;;2.50;;
56267;SDS011;42175;46.930;9.532;2023-02-01T12:46:02;13.32;;;2.75;;
56267;SDS011;42175;46.930;9.532;2023-02-01T12:48:38;13.70;;;3.00;;
56267;SDS011;42175;46.930;9.532;2023-02-01T12:51:12;9.63;;;2.53;;
56267;SDS011;42175;46.930;9.532;2023-02-01T12:53:45;12.60;;;2.63;;
56267;SDS011;42175;46.930;9.532;2023-02-01T12:56:32;11.48;;;2.92;;
56267;SDS011;42175;46.930;9.532;2023-02-01T12:59:04;9.02;;;2.85;;
56267;SDS011;42175;46.930;9.532;2023-02-01T13:01:49;11.55;;;3.10;;
56267;SDS011;42175;46.930;9.532;2023-02-01T13:04:25;9.55;;;2.90;;
56267;SDS011;42175;46.930;9.532;2023-02-01T13:07:00;16.67;;;3.63;;
56267;SDS011;42175;46.930;9.532;2023-02-01T13:09:41;8.80;;;2.70;;
56267;SDS011;42175;46.930;9.532;2023-02-01T13:12:34;10.07;;;2.85;;
56267;SDS011;42175;46.930;9.532;2023-02-01T13:17:51;9.05;;;2.47;;
56267;SDS011;42175;46.930;9.532;2023-02-01T13:28:17;8.57;;;2.50;;
56267;SDS011;42175;46.930;9.532;2023-02-01T13:31:13;7.07;;;2.90;;
56267;SDS011;42175;46.930;9.532;2023-02-01T13:42:42;3.35;;;1.50;;
56267;SDS011;42175;46.930;9.532;2023-02-01T13:45:04;2.17;;;1.30;;
56267;SDS011;42175;46.930;9.532;2023-02-01T13:47:40;4.07;;;1.42;;
56267;SDS011;42175;46.930;9.532;2023-02-01T13:55:38;5.35;;;1.10;;
56267;SDS011;42175;46.930;9.532;2023-02-01T13:58:15;2.97;;;1.42;;
56267;SDS011;42175;46.930;9.532;2023-02-01T14:00:47;4.68;;;1.20;;
56267;SDS011;42175;46.930;9.532;2023-02-01T14:03:21;3.67;;;1.08;;
56267;SDS011;42175;46.930;9.532;2023-02-01T14:06:15;1.98;;;1.10;;
56267;SDS011;42175;46.930;9.532;2023-02-01T14:14:59;4.13;;;1.15;;
56267;SDS011;42175;46.930;9.532;2023-02-01T14:17:43;2.25;;;1.20;;
56267;SDS011;42175;46.930;9.532;2023-02-01T14:23:04;2.33;;;1.17;;
56267;SDS011;42175;46.930;9.532;2023-02-01T14:25:36;5.90;;;2.20;;
56267;SDS011;42175;46.930;9.532;2023-02-01T14:28:09;4.15;;;1.25;;
56267;SDS011;42175;46.930;9.532;2023-02-01T14:30:48;3.72;;;1.23;;
56267;SDS011;42175;46.930;9.532;2023-02-01T14:33:17;3.15;;;1.33;;
56267;SDS011;42175;46.930;9.532;2023-02-01T14:36:00;2.55;;;1.20;;
56267;SDS011;42175;46.930;9.532;2023-02-01T14:38:30;4.00;;;1.20;;
56267;SDS011;42175;46.930;9.532;2023-02-01T14:49:29;2.40;;;1.30;;
56267;SDS011;42175;46.930;9.532;2023-02-01T14:51:57;1.90;;;1.23;;
56267;SDS011;42175;46.930;9.532;2023-02-01T14:54:24;3.53;;;1.20;;
56267;SDS011;42175;46.930;9.532;2023-02-01T14:56:51;4.65;;;1.83;;
56267;SDS011;42175;46.930;9.532;2023-02-01T14:59:20;3.25;;;1.33;;
56267;SDS011;42175;46.930;9.532;2023-02-01T15:01:56;1.55;;;0.93;;
56267;SDS011;42175;46.930;9.532;2023-02-01T15:04:26;2.60;;;1.08;;
56267;SDS011;42175;46.930;9.532;2023-02-01T15:06:56;4.30;;;1.27;;
56267;SDS011;42175;46.930;9.532;2023-02-01T15:09:37;2.92;;;1.20;;
56267;SDS011;42175;46.930;9.532;2023-02-01T15:14:40;2.03;;;1.30;;
56267;SDS011;42175;46.930;9.532;2023-02-01T15:20:15;2.60;;;1.33;;
56267;SDS011;42175;46.930;9.532;2023-02-01T15:22:42;2.17;;;1.23;;
56267;SDS011;42175;46.930;9.532;2023-02-01T15:25:24;4.00;;;1.30;;
56267;SDS011;42175;46.930;9.532;2023-02-01T15:30:21;3.60;;;1.17;;
56267;SDS011;42175;46.930;9.532;2023-02-01T15:33:04;2.75;;;1.10;;
56267;SDS011;42175;46.930;9.532;2023-02-01T15:43:35;1.83;;;1.10;;
56267;SDS011;42175;46.930;9.532;2023-02-01T15:46:02;2.15;;;1.20;;
56267;SDS011;42175;46.930;9.532;2023-02-01T15:48:47;3.08;;;1.13;;
56267;SDS011;42175;46.930;9.532;2023-02-01T15:51:17;3.20;;;1.20;;
56267;SDS011;42175;46.930;9.532;2023-02-01T15:53:45;3.22;;;1.20;;
56267;SDS011;42175;46.930;9.532;2023-02-01T15:56:13;2.17;;;0.90;;
56267;SDS011;42175;46.930;9.532;2023-02-01T15:58:41;2.75;;;1.42;;
56267;SDS011;42175;46.930;9.532;2023-02-01T16:01:10;6.30;;;1.42;;
56267;SDS011;42175;46.930;9.532;2023-02-01T16:06:10;5.63;;;1.20;;
56267;SDS011;42175;46.930;9.532;2023-02-01T16:08:36;4.25;;;1.20;;
56267;SDS011;42175;46.930;9.532;2023-02-01T16:13:32;4.47;;;1.63;;
56267;SDS011;42175;46.930;9.532;2023-02-01T16:15:58;2.53;;;1.25;;
56267;SDS011;42175;46.930;9.532;2023-02-01T16:18:23;4.13;;;1.50;;
56267;SDS011;42175;46.930;9.532;2023-02-01T16:20:49;2.40;;;1.20;;
56267;SDS011;42175;46.930;9.532;2023-02-01T16:23:15;2.53;;;1.00;;
56267;SDS011;42175;46.930;9.532;2023-02-01T16:25:40;2.63;;;1.13;;
56267;SDS011;42175;46.930;9.532;2023-02-01T16:28:06;2.33;;;1.30;;
56267;SDS011;42175;46.930;9.532;2023-02-01T16:30:33;2.20;;;1.05;;
56267;SDS011;42175;46.930;9.532;2023-02-01T16:33:00;2.67;;;1.10;;
56267;SDS011;42175;46.930;9.532;2023-02-01T16:38:10;3.58;;;1.13;;
56267;SDS011;42175;46.930;9.532;2023-02-01T16:40:41;1.88;;;1.08;;
56267;SDS011;42175;46.930;9.532;2023-02-01T16:43:13;7.80;;;1.45;;
56267;SDS011;42175;46.930;9.532;2023-02-01T16:45:39;9.65;;;1.60;;
56267;SDS011;42175;46.930;9.532;2023-02-01T16:48:05;5.97;;;1.13;;
56267;SDS011;42175;46.930;9.532;2023-02-01T16:50:32;7.75;;;1.10;;
56267;SDS011;42175;46.930;9.532;2023-02-01T16:52:58;6.35;;;1.17;;
56267;SDS011;42175;46.930;9.532;2023-02-01T16:55:26;9.55;;;1.67;;
56267;SDS011;42175;46.930;9.532;2023-02-01T16:57:52;7.28;;;1.40;;
56267;SDS011;42175;46.930;9.532;2023-02-01T17:00:18;9.13;;;1.50;;
56267;SDS011;42175;46.930;9.532;2023-02-01T17:02:45;5.22;;;1.35;;
56267;SDS011;42175;46.930;9.532;2023-02-01T17:05:11;13.68;;;1.60;;
56267;SDS011;42175;46.930;9.532;2023-02-01T17:07:37;6.90;;;1.40;;
56267;SDS011;42175;46.930;9.532;2023-02-01T17:10:05;5.18;;;1.30;;
56267;SDS011;42175;46.930;9.532;2023-02-01T17:12:31;5.05;;;1.58;;
56267;SDS011;42175;46.930;9.532;2023-02-01T17:14:58;13.05;;;1.55;;
56267;SDS011;42175;46.930;9.532;2023-02-01T17:17:36;6.65;;;1.42;;
56267;SDS011;42175;46.930;9.532;2023-02-01T17:20:03;8.07;;;1.92;;
56267;SDS011;42175;46.930;9.532;2023-02-01T17:22:30;5.28;;;1.23;;
56267;SDS011;42175;46.930;9.532;2023-02-01T17:24:57;5.32;;;1.35;;
56267;SDS011;42175;46.930;9.532;2023-02-01T17:27:23;5.32;;;1.88;;
56267;SDS011;42175;46.930;9.532;2023-02-01T17:29:48;5.13;;;1.08;;
56267;SDS011;42175;46.930;9.532;2023-02-01T17:32:19;6.47;;;1.58;;
56267;SDS011;42175;46.930;9.532;2023-02-01T17:34:47;4.32;;;1.20;;
56267;SDS011;42175;46.930;9.532;2023-02-01T17:37:27;4.65;;;1.40;;
56267;SDS011;42175;46.930;9.532;2023-02-01T17:39:55;31.45;;;2.65;;
56267;SDS011;42175;46.930;9.532;2023-02-01T17:42:24;9.13;;;1.15;;
56267;SDS011;42175;46.930;9.532;2023-02-01T17:44:54;6.03;;;1.23;;
56267;SDS011;42175;46.930;9.532;2023-02-01T17:47:21;10.23;;;2.42;;
56267;SDS011;42175;46.930;9.532;2023-02-01T17:49:47;9.73;;;1.80;;
56267;SDS011;42175;46.930;9.532;2023-02-01T17:52:19;8.30;;;1.77;;
56267;SDS011;42175;46.930;9.532;2023-02-01T17:54:46;13.02;;;2.80;;
56267;SDS011;42175;46.930;9.532;2023-02-01T17:57:14;48.58;;;2.70;;